Time;durP1;ratioP1;P1;durP2;ratioP2;P2;SDS_P1;SDS_P2;PMS_P1;PMS_P2;Temp;Humidity;BMP_temperature;BMP_pressure;BME280_temperature;BME280_humidity;BME280_pressure;Samples;Min_cycle;Max_cycle;Signal;HPM_P1;HPM_P2
2023/03/12 00:00:21;;;;;;;6.55;3.95;;;;;;;;;;4997218;28;20042;-78
2023/03/12 00:02:47;;;;;;;9.48;4.40;;;;;;;;;;4998138;28;20047;-78
2023/03/12 00:05:13;;;;;;;8.05;4.53;;;;;;;;;;4997235;28;20046;-78
2023/03/12 00:07:39;;;;;;;8.00;4.63;;;;;;;;;;4997519;28;20523;-78
2023/03/12 00:10:05;;;;;;;7.43;4.55;;;;;;;;;;4996872;28;20601;-78
2023/03/12 00:12:32;;;;;;;6.53;4.80;;;;;;;;;;4986690;28;20038;-77
2023/03/12 00:14:58;;;;;;;6.63;4.70;;;;;;;;;;4995922;28;20049;-78
2023/03/12 00:17:24;;;;;;;9.00;5.07;;;;;;;;;;4997253;28;20053;-78
2023/03/12 00:19:53;;;;;;;7.88;4.97;;;;;;;;;;4996795;28;20062;-78
2023/03/12 00:22:21;;;;;;;10.70;5.00;;;;;;;;;;5005767;28;20101;-78
2023/03/12 00:24:54;;;;;;;10.13;4.93;;;;;;;;;;4995170;28;20054;-78
2023/03/12 00:27:20;;;;;;;9.48;5.43;;;;;;;;;;4986490;28;20046;-78
2023/03/12 00:29:47;;;;;;;8.20;4.75;;;;;;;;;;4997282;28;20074;-78
2023/03/12 00:32:14;;;;;;;8.15;4.88;;;;;;;;;;4995425;28;20049;-78
2023/03/12 00:34:40;;;;;;;7.15;4.68;;;;;;;;;;4995682;28;20512;-78
2023/03/12 00:37:06;;;;;;;8.10;4.63;;;;;;;;;;4997041;28;20042;-78
2023/03/12 00:39:33;;;;;;;8.45;5.38;;;;;;;;;;4996588;28;20105;-78
2023/03/12 00:41:59;;;;;;;8.98;4.68;;;;;;;;;;4996350;28;20149;-78
2023/03/12 00:44:25;;;;;;;7.60;5.18;;;;;;;;;;4995965;28;20038;-78
2023/03/12 00:46:51;;;;;;;9.02;5.25;;;;;;;;;;4991926;28;20168;-78
2023/03/12 00:49:17;;;;;;;9.35;4.85;;;;;;;;;;4990823;28;20102;-78
2023/03/12 00:51:43;;;;;;;9.85;4.78;;;;;;;;;;4992005;28;20042;-78
2023/03/12 00:54:10;;;;;;;7.63;4.45;;;;;;;;;;4990011;28;20045;-78
2023/03/12 00:56:36;;;;;;;7.80;4.72;;;;;;;;;;4996221;28;20038;-78
2023/03/12 00:59:02;;;;;;;11.05;5.22;;;;;;;;;;4996226;28;20132;-78
2023/03/12 01:01:28;;;;;;;7.35;4.68;;;;;;;;;;4996168;28;20046;-78
2023/03/12 01:03:54;;;;;;;7.50;4.65;;;;;;;;;;4994408;28;20053;-78
2023/03/12 01:06:21;;;;;;;7.43;5.00;;;;;;;;;;4991116;28;20109;-78
2023/03/12 01:08:47;;;;;;;7.32;5.07;;;;;;;;;;4988131;28;20046;-78
2023/03/12 01:11:14;;;;;;;8.00;5.00;;;;;;;;;;4988896;28;20053;-78
2023/03/12 01:13:40;;;;;;;8.30;4.75;;;;;;;;;;4987847;28;20089;-77
2023/03/12 01:16:07;;;;;;;9.70;5.10;;;;;;;;;;5001063;28;20045;-79
2023/03/12 01:18:33;;;;;;;8.75;5.30;;;;;;;;;;4995970;28;20088;-78
2023/03/12 01:20:59;;;;;;;8.57;5.18;;;;;;;;;;4987070;28;20151;-78
2023/03/12 01:23:25;;;;;;;11.32;6.10;;;;;;;;;;4995282;28;20046;-78
2023/03/12 01:25:54;;;;;;;9.88;5.57;;;;;;;;;;4995779;28;20389;-78
2023/03/12 01:28:20;;;;;;;8.77;5.15;;;;;;;;;;4996176;28;20053;-78
2023/03/12 01:30:46;;;;;;;10.70;5.40;;;;;;;;;;4994826;28;20084;-78
2023/03/12 01:33:12;;;;;;;10.52;5.95;;;;;;;;;;4995970;28;20125;-78
2023/03/12 01:35:39;;;;;;;9.60;6.13;;;;;;;;;;4995592;28;20153;-78
2023/03/12 01:38:06;;;;;;;8.82;5.40;;;;;;;;;;4996061;28;20046;-78
2023/03/12 01:40:33;;;;;;;8.10;5.60;;;;;;;;;;4995833;28;20042;-78
2023/03/12 01:42:59;;;;;;;9.88;6.22;;;;;;;;;;4995746;28;20046;-78
2023/03/12 01:45:43;;;;;;;10.27;5.50;;;;;;;;;;4995082;28;20045;-78
2023/03/12 01:48:10;;;;;;;8.30;5.63;;;;;;;;;;4996049;28;20089;-78
2023/03/12 01:50:36;;;;;;;10.30;6.50;;;;;;;;;;4995405;28;20489;-78
2023/03/12 01:53:02;;;;;;;7.57;5.55;;;;;;;;;;4994382;28;20050;-77
2023/03/12 01:55:28;;;;;;;10.60;6.47;;;;;;;;;;4995210;28;20048;-78
2023/03/12 01:57:57;;;;;;;8.65;5.60;;;;;;;;;;4994871;28;20050;-78
2023/03/12 02:00:25;;;;;;;7.93;5.75;;;;;;;;;;4995627;28;20057;-77
2023/03/12 02:02:51;;;;;;;8.27;5.85;;;;;;;;;;4995198;28;20038;-78
2023/03/12 02:05:37;;;;;;;8.77;5.82;;;;;;;;;;4995513;28;20125;-78
2023/03/12 02:08:04;;;;;;;9.70;5.90;;;;;;;;;;4995507;28;20077;-78
2023/03/12 02:10:30;;;;;;;9.55;6.47;;;;;;;;;;4994684;28;20073;-78
2023/03/12 02:12:56;;;;;;;8.20;6.00;;;;;;;;;;4995097;28;20046;-78
2023/03/12 02:15:22;;;;;;;8.68;5.50;;;;;;;;;;4994459;28;20050;-78
2023/03/12 02:17:49;;;;;;;10.73;5.43;;;;;;;;;;4995007;28;20096;-77
2023/03/12 02:20:15;;;;;;;7.47;5.20;;;;;;;;;;4994320;28;20409;-78
2023/03/12 02:22:43;;;;;;;6.40;5.03;;;;;;;;;;4995098;28;20054;-78
2023/03/12 02:25:15;;;;;;;8.48;5.55;;;;;;;;;;4994748;28;20074;-78
2023/03/12 02:27:41;;;;;;;8.82;5.47;;;;;;;;;;4994550;28;20093;-78
2023/03/12 02:30:08;;;;;;;8.18;5.10;;;;;;;;;;4994398;28;20038;-78
2023/03/12 02:32:37;;;;;;;5.93;4.57;;;;;;;;;;4994207;28;20038;-78
2023/03/12 02:35:04;;;;;;;7.35;4.50;;;;;;;;;;4987792;28;20050;-78
2023/03/12 02:37:30;;;;;;;8.02;4.57;;;;;;;;;;4994561;28;20182;-78
2023/03/12 02:40:00;;;;;;;8.00;4.50;;;;;;;;;;4994340;28;20054;-78
2023/03/12 02:42:26;;;;;;;10.93;4.80;;;;;;;;;;4994420;28;20101;-78
2023/03/12 02:44:52;;;;;;;7.82;4.15;;;;;;;;;;4994115;28;20049;-78
2023/03/12 02:47:18;;;;;;;7.00;4.30;;;;;;;;;;4994401;28;20242;-78
2023/03/12 02:49:45;;;;;;;9.13;5.00;;;;;;;;;;4994828;28;20042;-78
2023/03/12 02:52:11;;;;;;;7.15;4.30;;;;;;;;;;4987928;28;20047;-78
2023/03/12 02:54:37;;;;;;;7.72;4.32;;;;;;;;;;4991394;28;20588;-77
2023/03/12 02:57:03;;;;;;;7.18;4.05;;;;;;;;;;4999291;28;20042;-77
2023/03/12 02:59:29;;;;;;;7.10;4.30;;;;;;;;;;4997364;28;20046;-77
2023/03/12 03:01:57;;;;;;;10.55;4.90;;;;;;;;;;4994267;28;20055;-77
2023/03/12 03:04:23;;;;;;;6.57;4.30;;;;;;;;;;4993542;28;20046;-77
2023/03/12 03:06:49;;;;;;;7.28;4.50;;;;;;;;;;4993858;28;20053;-77
2023/03/12 03:09:15;;;;;;;6.85;4.70;;;;;;;;;;4993755;28;20034;-78
2023/03/12 03:11:41;;;;;;;8.25;5.07;;;;;;;;;;4993967;28;20564;-77
2023/03/12 03:14:09;;;;;;;5.88;4.13;;;;;;;;;;5007729;28;20096;-77
2023/03/12 03:16:35;;;;;;;8.07;4.60;;;;;;;;;;4996581;28;20050;-77
2023/03/12 03:19:01;;;;;;;7.20;4.50;;;;;;;;;;4994043;28;20465;-77
2023/03/12 03:21:27;;;;;;;6.53;4.47;;;;;;;;;;4994246;28;20052;-78
2023/03/12 03:23:53;;;;;;;5.72;4.50;;;;;;;;;;4993705;28;20053;-79
2023/03/12 03:26:21;;;;;;;8.55;4.82;;;;;;;;;;4993099;28;20042;-78
2023/03/12 03:28:47;;;;;;;7.10;4.60;;;;;;;;;;4991465;28;20050;-78
2023/03/12 03:31:13;;;;;;;10.65;5.20;;;;;;;;;;4993048;28;20045;-78
2023/03/12 03:33:40;;;;;;;7.22;4.65;;;;;;;;;;4993234;28;20050;-78
2023/03/12 03:36:07;;;;;;;7.20;4.78;;;;;;;;;;4993588;28;20084;-78
2023/03/12 03:38:33;;;;;;;6.22;4.60;;;;;;;;;;4994013;28;20046;-78
2023/03/12 03:41:00;;;;;;;10.15;4.65;;;;;;;;;;4993716;28;20038;-78
2023/03/12 03:43:26;;;;;;;7.78;4.60;;;;;;;;;;4993342;28;20101;-78
2023/03/12 03:46:05;;;;;;;7.93;5.00;;;;;;;;;;4993707;28;20046;-78
2023/03/12 03:48:31;;;;;;;9.55;4.78;;;;;;;;;;4993770;28;20053;-78
2023/03/12 03:51:01;;;;;;;6.97;4.82;;;;;;;;;;4994234;28;20097;-78
2023/03/12 03:53:27;;;;;;;10.35;5.40;;;;;;;;;;4993575;28;20128;-78
2023/03/12 03:55:53;;;;;;;8.25;4.97;;;;;;;;;;4957879;28;20102;-78
2023/03/12 03:58:19;;;;;;;7.38;4.97;;;;;;;;;;4992405;28;20042;-78
2023/03/12 04:00:45;;;;;;;7.72;5.07;;;;;;;;;;4992135;28;20042;-78
2023/03/12 04:03:12;;;;;;;7.28;4.75;;;;;;;;;;4993884;28;20070;-78
2023/03/12 04:05:39;;;;;;;7.82;4.65;;;;;;;;;;4993211;28;20535;-78
2023/03/12 04:08:05;;;;;;;8.55;4.93;;;;;;;;;;4992724;28;20126;-78
2023/03/12 04:10:31;;;;;;;7.35;4.65;;;;;;;;;;4993873;28;20043;-78
2023/03/12 04:12:57;;;;;;;6.28;4.85;;;;;;;;;;4993439;28;20122;-78
2023/03/12 04:15:24;;;;;;;7.68;4.57;;;;;;;;;;4993632;28;20039;-78
2023/03/12 04:17:50;;;;;;;8.32;4.53;;;;;;;;;;5021450;28;20056;-78
2023/03/12 04:20:16;;;;;;;6.95;4.50;;;;;;;;;;4997055;28;20050;-78
2023/03/12 04:22:42;;;;;;;5.40;4.40;;;;;;;;;;4996768;28;20082;-78
2023/03/12 04:25:08;;;;;;;7.05;5.07;;;;;;;;;;4996708;28;20042;-79
2023/03/12 04:27:34;;;;;;;8.73;4.65;;;;;;;;;;4996874;28;20129;-78
2023/03/12 04:30:00;;;;;;;6.10;4.78;;;;;;;;;;4996607;28;20528;-78
2023/03/12 04:32:26;;;;;;;9.48;4.75;;;;;;;;;;4996724;28;20050;-78
2023/03/12 04:34:52;;;;;;;5.55;4.50;;;;;;;;;;4996140;28;20050;-78
2023/03/12 04:37:18;;;;;;;7.32;4.78;;;;;;;;;;4996740;28;20038;-78
2023/03/12 04:39:45;;;;;;;6.78;4.55;;;;;;;;;;4996421;28;20485;-78
2023/03/12 04:42:11;;;;;;;9.23;5.35;;;;;;;;;;4996753;28;20118;-78
2023/03/12 04:44:37;;;;;;;5.95;4.70;;;;;;;;;;5011707;28;20038;-78
2023/03/12 04:47:03;;;;;;;7.15;4.60;;;;;;;;;;4996300;28;20062;-78
2023/03/12 04:49:29;;;;;;;6.10;4.60;;;;;;;;;;4996200;28;20448;-78
2023/03/12 04:51:55;;;;;;;7.25;4.88;;;;;;;;;;4991448;28;20126;-78
2023/03/12 04:54:21;;;;;;;6.38;4.47;;;;;;;;;;4996331;28;20052;-78
2023/03/12 04:56:48;;;;;;;7.10;4.55;;;;;;;;;;4996655;28;20046;-78
2023/03/12 04:59:14;;;;;;;8.15;4.80;;;;;;;;;;4996179;28;20563;-78
2023/03/12 05:01:40;;;;;;;6.53;4.35;;;;;;;;;;4995732;28;20046;-78
2023/03/12 05:04:06;;;;;;;6.40;4.80;;;;;;;;;;4995625;28;20042;-78
2023/03/12 05:06:33;;;;;;;8.25;4.50;;;;;;;;;;4995771;28;20440;-78
2023/03/12 05:08:59;;;;;;;6.18;4.40;;;;;;;;;;4996429;28;20088;-78
2023/03/12 05:11:25;;;;;;;7.00;4.22;;;;;;;;;;4996144;28;20050;-78
2023/03/12 05:13:51;;;;;;;9.13;4.50;;;;;;;;;;4996043;28;20061;-78
2023/03/12 05:16:17;;;;;;;7.53;4.65;;;;;;;;;;4996394;28;20050;-78
2023/03/12 05:18:44;;;;;;;6.40;4.63;;;;;;;;;;4995895;28;20046;-78
2023/03/12 05:21:14;;;;;;;8.80;4.78;;;;;;;;;;4996355;28;20050;-78
2023/03/12 05:23:41;;;;;;;6.93;4.40;;;;;;;;;;4988867;28;20050;-78
2023/03/12 05:26:08;;;;;;;6.25;4.40;;;;;;;;;;4995785;28;20497;-78
2023/03/12 05:28:34;;;;;;;7.47;4.63;;;;;;;;;;4995049;28;20038;-78
2023/03/12 05:31:00;;;;;;;7.80;4.68;;;;;;;;;;4995448;28;20046;-79
2023/03/12 05:33:27;;;;;;;6.20;4.60;;;;;;;;;;4995895;28;20042;-78
2023/03/12 05:35:53;;;;;;;7.18;4.70;;;;;;;;;;4995546;28;20100;-78
2023/03/12 05:38:19;;;;;;;6.72;4.25;;;;;;;;;;4993801;28;20046;-78
2023/03/12 05:40:53;;;;;;;6.53;4.53;;;;;;;;;;4995387;28;20044;-78
2023/03/12 05:43:19;;;;;;;8.18;4.32;;;;;;;;;;4993158;28;20496;-78
2023/03/12 05:45:45;;;;;;;8.45;4.70;;;;;;;;;;4978020;28;20050;-77
2023/03/12 05:48:11;;;;;;;8.27;4.72;;;;;;;;;;4993788;28;20121;-78
2023/03/12 05:50:37;;;;;;;7.25;4.30;;;;;;;;;;4990018;28;20461;-78
2023/03/12 05:53:03;;;;;;;5.75;4.30;;;;;;;;;;4995736;28;20501;-77
2023/03/12 05:55:29;;;;;;;7.53;4.40;;;;;;;;;;4998390;28;20510;-78
2023/03/12 05:57:55;;;;;;;9.05;4.53;;;;;;;;;;4994511;28;20050;-78
2023/03/12 06:00:21;;;;;;;5.60;4.10;;;;;;;;;;4992749;28;20042;-78
2023/03/12 06:02:47;;;;;;;7.97;4.35;;;;;;;;;;4995035;28;20057;-78
2023/03/12 06:05:14;;;;;;;5.45;4.53;;;;;;;;;;4994776;28;20397;-78
2023/03/12 06:07:40;;;;;;;7.63;4.70;;;;;;;;;;4995345;28;20104;-78
2023/03/12 06:10:06;;;;;;;5.78;4.38;;;;;;;;;;4995101;28;20129;-78
2023/03/12 06:12:32;;;;;;;7.40;4.85;;;;;;;;;;4998265;28;20122;-77
2023/03/12 06:14:58;;;;;;;9.02;4.63;;;;;;;;;;4994242;28;20121;-78
2023/03/12 06:17:24;;;;;;;8.63;4.50;;;;;;;;;;4994904;28;20089;-78
2023/03/12 06:19:51;;;;;;;6.93;4.50;;;;;;;;;;4994367;28;20050;-78
2023/03/12 06:22:18;;;;;;;7.40;4.32;;;;;;;;;;4994563;28;20057;-78
2023/03/12 06:24:46;;;;;;;6.10;4.10;;;;;;;;;;4993487;28;20543;-78
2023/03/12 06:27:12;;;;;;;6.93;4.70;;;;;;;;;;4987863;28;20062;-78
2023/03/12 06:29:39;;;;;;;5.75;4.38;;;;;;;;;;4995457;28;20053;-78
2023/03/12 06:32:05;;;;;;;6.25;4.45;;;;;;;;;;4992643;28;20050;-78
2023/03/12 06:34:31;;;;;;;6.90;4.60;;;;;;;;;;4994241;28;20370;-78
2023/03/12 06:36:57;;;;;;;7.53;4.55;;;;;;;;;;4994306;28;20496;-78
2023/03/12 06:39:24;;;;;;;7.40;4.65;;;;;;;;;;4994290;28;20124;-78
2023/03/12 06:41:50;;;;;;;6.25;4.38;;;;;;;;;;4978428;28;20038;-78
2023/03/12 06:44:16;;;;;;;7.32;4.82;;;;;;;;;;4993584;28;20100;-77
2023/03/12 06:46:43;;;;;;;6.35;4.78;;;;;;;;;;4993757;28;20046;-81
2023/03/12 06:49:09;;;;;;;7.15;4.50;;;;;;;;;;4994948;28;20042;-77
2023/03/12 06:51:35;;;;;;;7.35;5.15;;;;;;;;;;4994867;28;20046;-78
2023/03/12 06:54:01;;;;;;;9.07;5.03;;;;;;;;;;4993604;28;20133;-78
2023/03/12 06:56:28;;;;;;;10.68;4.50;;;;;;;;;;4995684;28;20046;-78
2023/03/12 06:58:54;;;;;;;7.35;5.00;;;;;;;;;;4993164;28;20050;-77
2023/03/12 07:01:21;;;;;;;6.65;4.95;;;;;;;;;;4993276;28;20046;-77
2023/03/12 07:03:47;;;;;;;7.38;5.05;;;;;;;;;;4993504;28;20034;-77
2023/03/12 07:06:20;;;;;;;8.27;5.15;;;;;;;;;;4994016;28;20501;-77
2023/03/12 07:08:47;;;;;;;8.35;5.30;;;;;;;;;;4992968;28;20038;-77
2023/03/12 07:11:14;;;;;;;8.35;5.70;;;;;;;;;;4993300;28;20042;-77
2023/03/12 07:13:40;;;;;;;9.07;5.60;;;;;;;;;;4991805;28;20377;-76
2023/03/12 07:16:09;;;;;;;11.82;6.13;;;;;;;;;;4993829;28;20050;-76
2023/03/12 07:18:35;;;;;;;7.32;5.78;;;;;;;;;;4992488;28;20108;-77
2023/03/12 07:21:02;;;;;;;8.93;5.93;;;;;;;;;;4992018;28;20520;-77
2023/03/12 07:23:28;;;;;;;11.20;5.75;;;;;;;;;;4990738;28;20046;-77
2023/03/12 07:25:54;;;;;;;7.80;5.93;;;;;;;;;;4994046;28;20073;-77
2023/03/12 07:28:21;;;;;;;9.25;6.43;;;;;;;;;;4993741;28;20092;-77
2023/03/12 07:30:49;;;;;;;7.72;6.22;;;;;;;;;;4996352;28;20062;-77
2023/03/12 07:33:16;;;;;;;9.73;6.32;;;;;;;;;;4993942;28;20050;-77
2023/03/12 07:35:42;;;;;;;10.10;6.68;;;;;;;;;;4994315;28;20046;-77
2023/03/12 07:38:08;;;;;;;8.15;5.80;;;;;;;;;;4994106;28;20057;-77
2023/03/12 07:40:35;;;;;;;11.65;6.28;;;;;;;;;;5020649;28;20089;-77
2023/03/12 07:43:02;;;;;;;10.05;7.15;;;;;;;;;;4991664;28;20121;-77
2023/03/12 07:45:28;;;;;;;8.45;5.65;;;;;;;;;;4993529;28;20459;-77
2023/03/12 07:47:54;;;;;;;9.95;6.75;;;;;;;;;;4993700;28;20042;-77
2023/03/12 07:50:21;;;;;;;11.98;6.78;;;;;;;;;;4993660;28;20042;-77
2023/03/12 07:52:47;;;;;;;11.00;7.13;;;;;;;;;;4997316;28;20041;-77
2023/03/12 07:55:14;;;;;;;12.10;6.93;;;;;;;;;;4997753;28;20058;-76
2023/03/12 07:57:40;;;;;;;8.23;6.00;;;;;;;;;;4996851;28;20058;-76
2023/03/12 08:00:07;;;;;;;9.68;6.30;;;;;;;;;;4996129;28;20053;-77
2023/03/12 08:02:34;;;;;;;11.00;7.05;;;;;;;;;;4997345;28;20054;-76
2023/03/12 08:05:00;;;;;;;9.05;6.90;;;;;;;;;;4997881;28;20053;-77
2023/03/12 08:07:30;;;;;;;11.93;8.00;;;;;;;;;;4994590;28;20047;-84
2023/03/12 08:09:57;;;;;;;10.30;7.10;;;;;;;;;;4995455;28;20050;-77
2023/03/12 08:12:23;;;;;;;10.82;8.15;;;;;;;;;;4980912;28;20047;-77
2023/03/12 08:14:49;;;;;;;9.30;6.72;;;;;;;;;;4995563;28;20049;-77
2023/03/12 08:17:19;;;;;;;10.20;7.38;;;;;;;;;;4997908;28;20048;-77
2023/03/12 08:19:45;;;;;;;10.18;7.00;;;;;;;;;;4983691;28;20057;-83
2023/03/12 08:22:11;;;;;;;10.95;7.60;;;;;;;;;;5029268;28;20548;-77
2023/03/12 08:24:37;;;;;;;11.45;7.10;;;;;;;;;;4997527;28;20072;-77
2023/03/12 08:27:03;;;;;;;9.90;7.25;;;;;;;;;;4996834;28;20418;-77
2023/03/12 08:29:29;;;;;;;9.15;7.30;;;;;;;;;;4996806;28;20373;-77
2023/03/12 08:31:55;;;;;;;11.73;8.02;;;;;;;;;;4996425;28;20050;-77
2023/03/12 08:34:21;;;;;;;11.18;7.97;;;;;;;;;;4996662;28;20050;-76
2023/03/12 08:36:47;;;;;;;9.90;7.05;;;;;;;;;;4996956;28;20102;-76
2023/03/12 08:39:13;;;;;;;11.90;7.18;;;;;;;;;;4996904;28;20141;-76
2023/03/12 08:41:39;;;;;;;11.10;7.88;;;;;;;;;;4996567;28;20121;-76
2023/03/12 08:44:06;;;;;;;9.68;7.28;;;;;;;;;;4994238;28;20385;-78
2023/03/12 08:46:32;;;;;;;9.90;7.60;;;;;;;;;;4994952;28;20452;-78
2023/03/12 08:48:58;;;;;;;10.57;8.13;;;;;;;;;;4995678;28;20038;-78
2023/03/12 08:51:24;;;;;;;13.20;8.15;;;;;;;;;;4993717;28;20417;-77
2023/03/12 08:53:50;;;;;;;14.23;8.77;;;;;;;;;;4994711;28;20085;-78
2023/03/12 08:56:16;;;;;;;11.50;8.52;;;;;;;;;;4995898;28;20053;-78
2023/03/12 08:58:42;;;;;;;16.25;9.32;;;;;;;;;;4997526;28;20042;-78
2023/03/12 09:01:09;;;;;;;12.88;9.50;;;;;;;;;;4997310;28;20056;-78
2023/03/12 09:03:35;;;;;;;16.13;10.02;;;;;;;;;;4996975;28;20489;-77
2023/03/12 09:06:12;;;;;;;12.95;8.63;;;;;;;;;;4995850;28;20169;-76
2023/03/12 09:08:38;;;;;;;13.02;9.70;;;;;;;;;;4983693;28;20485;-78
2023/03/12 09:11:05;;;;;;;13.00;9.10;;;;;;;;;;4995369;28;20054;-77
2023/03/12 09:13:31;;;;;;;10.27;8.88;;;;;;;;;;4981959;28;20046;-77
2023/03/12 09:16:01;;;;;;;13.38;9.35;;;;;;;;;;4992694;28;20042;-77
2023/03/12 09:18:28;;;;;;;12.75;9.68;;;;;;;;;;4994866;28;20038;-77
2023/03/12 09:20:54;;;;;;;12.00;9.63;;;;;;;;;;4994457;28;20066;-77
2023/03/12 09:23:20;;;;;;;13.15;9.48;;;;;;;;;;4994067;28;20109;-77
2023/03/12 09:25:47;;;;;;;13.45;9.70;;;;;;;;;;4987836;28;20082;-77
2023/03/12 09:28:13;;;;;;;12.15;9.05;;;;;;;;;;4986177;28;20146;-77
2023/03/12 09:30:39;;;;;;;14.93;9.63;;;;;;;;;;4995679;28;20050;-76
2023/03/12 09:33:05;;;;;;;15.73;9.73;;;;;;;;;;4995685;28;20389;-77
2023/03/12 09:35:31;;;;;;;12.93;10.02;;;;;;;;;;4995638;28;20474;-77
2023/03/12 09:37:58;;;;;;;12.80;9.75;;;;;;;;;;4991283;28;20058;-77
2023/03/12 09:40:27;;;;;;;11.27;9.20;;;;;;;;;;4975934;28;20053;-78
2023/03/12 09:43:02;;;;;;;12.57;10.30;;;;;;;;;;4994327;28;20170;-78
2023/03/12 09:45:48;;;;;;;16.75;9.73;;;;;;;;;;4985630;28;20485;-77
2023/03/12 09:48:16;;;;;;;13.55;10.10;;;;;;;;;;4995404;28;20066;-78
2023/03/12 09:50:44;;;;;;;13.55;9.73;;;;;;;;;;4995882;28;20050;-78
2023/03/12 09:53:14;;;;;;;13.50;10.13;;;;;;;;;;4994214;28;20440;-77
2023/03/12 09:55:41;;;;;;;11.57;9.32;;;;;;;;;;4992423;28;20053;-79
2023/03/12 09:58:15;;;;;;;14.55;9.95;;;;;;;;;;4994238;28;20104;-77
2023/03/12 10:00:41;;;;;;;11.00;9.77;;;;;;;;;;4994424;28;20050;-77
2023/03/12 10:03:18;;;;;;;12.93;9.45;;;;;;;;;;4994251;28;20077;-77
2023/03/12 10:05:44;;;;;;;12.60;9.45;;;;;;;;;;4991972;28;20050;-77
2023/03/12 10:08:25;;;;;;;13.80;10.32;;;;;;;;;;4994410;28;20047;-77
2023/03/12 10:10:57;;;;;;;15.02;9.98;;;;;;;;;;4992236;28;20093;-77
2023/03/12 10:13:43;;;;;;;13.27;10.02;;;;;;;;;;4990238;28;20121;-77
2023/03/12 10:16:30;;;;;;;15.52;9.38;;;;;;;;;;4993921;28;20042;-76
2023/03/12 10:19:12;;;;;;;13.70;9.90;;;;;;;;;;4996591;28;20132;-76
2023/03/12 10:21:41;;;;;;;12.90;10.18;;;;;;;;;;4996523;28;20099;-75
2023/03/12 10:24:27;;;;;;;11.88;9.43;;;;;;;;;;4988398;28;20494;-75
2023/03/12 10:26:55;;;;;;;11.18;8.55;;;;;;;;;;4988792;28;20596;-75
2023/03/12 10:29:23;;;;;;;13.95;9.88;;;;;;;;;;4994107;28;20042;-75
2023/03/12 10:32:00;;;;;;;15.23;9.52;;;;;;;;;;4993697;28;20124;-74
2023/03/12 10:34:40;;;;;;;14.50;11.02;;;;;;;;;;4987009;28;20509;-74
2023/03/12 10:37:14;;;;;;;13.75;9.40;;;;;;;;;;4989117;28;20078;-75
2023/03/12 10:39:40;;;;;;;14.80;9.27;;;;;;;;;;4992886;28;20053;-75
2023/03/12 10:42:20;;;;;;;13.88;9.93;;;;;;;;;;4988552;28;20090;-75
2023/03/12 10:44:48;;;;;;;17.98;11.13;;;;;;;;;;4993505;28;20086;-75
2023/03/12 10:47:34;;;;;;;13.77;9.95;;;;;;;;;;4997483;28;20061;-75
2023/03/12 10:50:15;;;;;;;11.63;9.23;;;;;;;;;;4993337;28;20065;-75
2023/03/12 10:52:42;;;;;;;16.23;10.90;;;;;;;;;;4992659;28;20046;-75
2023/03/12 10:55:23;;;;;;;15.50;12.10;;;;;;;;;;4991120;28;20057;-75
2023/03/12 10:57:49;;;;;;;17.75;11.35;;;;;;;;;;4990715;28;20057;-75
2023/03/12 11:00:20;;;;;;;16.95;11.13;;;;;;;;;;4993705;28;20069;-74
2023/03/12 11:02:47;;;;;;;18.40;12.00;;;;;;;;;;4991496;28;20046;-74
2023/03/12 11:05:20;;;;;;;20.00;12.43;;;;;;;;;;4992406;28;20049;-75
2023/03/12 11:07:47;;;;;;;20.63;13.57;;;;;;;;;;4994022;28;20053;-74
2023/03/12 11:10:18;;;;;;;17.60;11.40;;;;;;;;;;4993414;28;20062;-74
2023/03/12 11:12:58;;;;;;;18.05;11.20;;;;;;;;;;4994503;28;20038;-75
2023/03/12 11:15:27;;;;;;;21.10;13.48;;;;;;;;;;4992245;28;20038;-76
2023/03/12 11:18:13;;;;;;;16.55;11.20;;;;;;;;;;4990316;28;20114;-74
2023/03/12 11:20:40;;;;;;;17.25;11.80;;;;;;;;;;4990660;28;20415;-75
2023/03/12 11:23:22;;;;;;;18.15;12.20;;;;;;;;;;4984690;28;20126;-76
2023/03/12 11:26:12;;;;;;;18.02;12.80;;;;;;;;;;4992270;28;20072;-79
2023/03/12 11:28:43;;;;;;;16.42;11.43;;;;;;;;;;4986740;28;20086;-75
2023/03/12 11:31:13;;;;;;;20.27;13.52;;;;;;;;;;4997705;28;20117;-75
2023/03/12 11:33:39;;;;;;;22.13;13.75;;;;;;;;;;4995554;28;20053;-76
2023/03/12 11:36:24;;;;;;;18.70;13.63;;;;;;;;;;4990266;28;20097;-77
2023/03/12 11:39:11;;;;;;;19.73;12.82;;;;;;;;;;4996940;28;20133;-75
2023/03/12 11:41:40;;;;;;;18.55;13.45;;;;;;;;;;4997374;28;20061;-75
2023/03/12 11:44:15;;;;;;;18.25;13.27;;;;;;;;;;4997634;28;20042;-74
2023/03/12 11:46:41;;;;;;;20.45;14.30;;;;;;;;;;4991835;28;20121;-75
2023/03/12 11:49:26;;;;;;;22.52;15.23;;;;;;;;;;4993149;28;20081;-75
2023/03/12 11:51:56;;;;;;;20.65;13.95;;;;;;;;;;4985875;28;20117;-76
2023/03/12 11:54:41;;;;;;;19.83;13.20;;;;;;;;;;4994973;28;20050;-75
2023/03/12 11:57:13;;;;;;;18.92;13.25;;;;;;;;;;4993850;28;20477;-75
2023/03/12 11:59:42;;;;;;;22.15;15.73;;;;;;;;;;4997676;28;20084;-75
2023/03/12 12:02:17;;;;;;;26.50;19.70;;;;;;;;;;4996326;28;20539;-75
2023/03/12 12:04:56;;;;;;;28.80;19.17;;;;;;;;;;4994040;28;20064;-76
2023/03/12 12:07:37;;;;;;;21.42;13.95;;;;;;;;;;5002573;28;20066;-75
2023/03/12 12:10:10;;;;;;;22.48;13.95;;;;;;;;;;4999081;28;20374;-76
2023/03/12 12:12:55;;;;;;;27.27;15.57;;;;;;;;;;4997020;28;20539;-75
2023/03/12 12:15:39;;;;;;;24.63;13.93;;;;;;;;;;4997224;28;20042;-75
2023/03/12 12:18:14;;;;;;;27.77;14.00;;;;;;;;;;4996856;28;20054;-75
2023/03/12 12:21:02;;;;;;;26.88;13.70;;;;;;;;;;4995520;28;20089;-76
2023/03/12 12:23:39;;;;;;;27.88;14.75;;;;;;;;;;4996022;28;20088;-75
2023/03/12 12:26:06;;;;;;;39.05;17.40;;;;;;;;;;4994637;28;20065;-76
2023/03/12 12:28:32;;;;;;;37.28;16.88;;;;;;;;;;4995596;28;20105;-77
2023/03/12 12:31:16;;;;;;;41.70;16.35;;;;;;;;;;4994187;28;20128;-76
2023/03/12 12:33:42;;;;;;;36.38;14.13;;;;;;;;;;4994877;28;20039;-77
2023/03/12 12:36:10;;;;;;;38.80;14.23;;;;;;;;;;4995330;28;20066;-76
2023/03/12 12:38:40;;;;;;;35.10;13.20;;;;;;;;;;4994350;28;20039;-75
2023/03/12 12:41:09;;;;;;;36.17;12.02;;;;;;;;;;4994439;28;20054;-75
2023/03/12 12:43:40;;;;;;;30.90;10.85;;;;;;;;;;4995430;28;20042;-75
2023/03/12 12:46:15;;;;;;;35.22;10.27;;;;;;;;;;4994578;28;20391;-74
2023/03/12 12:48:47;;;;;;;25.52;8.85;;;;;;;;;;4995117;28;20038;-75
2023/03/12 12:51:14;;;;;;;34.45;10.07;;;;;;;;;;4994723;28;20054;-76
2023/03/12 12:53:50;;;;;;;35.75;8.82;;;;;;;;;;4995070;28;20042;-75
2023/03/12 12:56:28;;;;;;;26.15;8.88;;;;;;;;;;4994993;28;20077;-74
2023/03/12 12:59:13;;;;;;;26.05;8.55;;;;;;;;;;4994670;28;20050;-74
2023/03/12 13:01:39;;;;;;;25.20;7.32;;;;;;;;;;4983502;28;20084;-75
2023/03/12 13:04:09;;;;;;;27.33;8.73;;;;;;;;;;4994487;28;20178;-75
2023/03/12 13:06:53;;;;;;;24.73;6.78;;;;;;;;;;4995242;28;20261;-74
2023/03/12 13:09:22;;;;;;;27.75;6.20;;;;;;;;;;4994600;28;20050;-75
2023/03/12 13:11:50;;;;;;;27.08;7.65;;;;;;;;;;4993616;28;20570;-76
2023/03/12 13:14:21;;;;;;;23.10;7.03;;;;;;;;;;4994320;28;20113;-76
2023/03/12 13:16:47;;;;;;;23.08;5.88;;;;;;;;;;4994039;28;20046;-75
2023/03/12 13:19:14;;;;;;;25.63;6.60;;;;;;;;;;4956361;28;1119633;-74
2023/03/12 13:21:53;;;;;;;22.00;5.93;;;;;;;;;;4995899;28;20050;-76
2023/03/12 13:24:22;;;;;;;22.27;6.00;;;;;;;;;;4992494;28;20042;-75
2023/03/12 13:26:54;;;;;;;19.08;5.43;;;;;;;;;;4995803;28;20469;-75
2023/03/12 13:29:22;;;;;;;18.27;4.85;;;;;;;;;;4994769;28;20524;-75
2023/03/12 13:31:48;;;;;;;16.25;4.63;;;;;;;;;;4995700;28;20497;-76
2023/03/12 13:34:17;;;;;;;24.17;6.28;;;;;;;;;;4988461;28;20053;-75
2023/03/12 13:36:44;;;;;;;24.95;5.22;;;;;;;;;;4992931;28;20581;-76
2023/03/12 13:39:16;;;;;;;29.23;6.93;;;;;;;;;;4994976;28;20042;-77
2023/03/12 13:41:45;;;;;;;19.85;6.13;;;;;;;;;;4995940;28;20046;-77
2023/03/12 13:44:38;;;;;;;21.08;6.85;;;;;;;;;;4995166;28;20050;-76
2023/03/12 13:47:10;;;;;;;20.67;6.72;;;;;;;;;;4975541;28;20062;-78
2023/03/12 13:49:36;;;;;;;27.38;6.82;;;;;;;;;;4975295;28;20053;-78
2023/03/12 13:52:02;;;;;;;22.60;6.68;;;;;;;;;;4975867;28;20042;-77
2023/03/12 13:54:31;;;;;;;27.52;6.22;;;;;;;;;;4975984;28;20049;-79
2023/03/12 13:57:11;;;;;;;27.58;5.93;;;;;;;;;;4976072;28;20046;-78
2023/03/12 13:59:42;;;;;;;23.55;4.95;;;;;;;;;;4993505;28;20039;-78
2023/03/12 14:02:14;;;;;;;24.02;5.55;;;;;;;;;;4998333;28;20042;-78
2023/03/12 14:04:41;;;;;;;24.05;6.43;;;;;;;;;;5003074;28;20366;-82
2023/03/12 14:07:22;;;;;;;21.27;6.35;;;;;;;;;;5003299;28;20068;-79
2023/03/12 14:09:52;;;;;;;23.15;4.90;;;;;;;;;;5002915;28;20053;-80
2023/03/12 14:12:36;;;;;;;22.73;5.85;;;;;;;;;;4999547;28;20041;-79
2023/03/12 14:15:26;;;;;;;24.88;5.47;;;;;;;;;;4992332;28;20047;-79
2023/03/12 14:18:03;;;;;;;28.35;6.45;;;;;;;;;;4997884;28;20045;-79
2023/03/12 14:20:30;;;;;;;22.83;5.60;;;;;;;;;;4997096;28;20054;-79
2023/03/12 14:23:02;;;;;;;28.77;6.95;;;;;;;;;;4981583;28;20086;-79
2023/03/12 14:25:32;;;;;;;23.25;6.15;;;;;;;;;;5023804;28;20042;-80
2023/03/12 14:27:58;;;;;;;23.48;5.95;;;;;;;;;;4995212;28;20047;-79
2023/03/12 14:30:30;;;;;;;24.17;5.72;;;;;;;;;;4993306;28;20509;-79
2023/03/12 14:32:57;;;;;;;26.60;6.20;;;;;;;;;;4994800;28;20385;-78
2023/03/12 14:35:29;;;;;;;27.73;6.78;;;;;;;;;;4994679;28;20038;-79
2023/03/12 14:38:05;;;;;;;23.15;5.82;;;;;;;;;;4995173;28;20129;-78
2023/03/12 14:40:43;;;;;;;20.15;6.15;;;;;;;;;;4994906;28;20477;-78
2023/03/12 14:43:19;;;;;;;20.95;5.80;;;;;;;;;;4996296;28;20174;-79